sensor_id;sensor_type;location;lat;lon;timestamp;pressure;altitude;pressure_sealevel;temperature;humidity
76052;BME280;64751;48.708;9.710;2023-05-10T14:32:34;97315.03;;;15.70;72.15
76052;BME280;64751;48.708;9.710;2023-05-10T14:35:03;97320.84;;;15.72;72.69
76052;BME280;64751;48.708;9.710;2023-05-10T14:37:32;97291.56;;;15.55;73.42
76052;BME280;64751;48.708;9.710;2023-05-10T14:39:59;97320.03;;;15.72;73.29
76052;BME280;64751;48.708;9.710;2023-05-10T14:42:30;97313.78;;;15.76;74.67
76052;BME280;64751;48.708;9.710;2023-05-10T14:44:57;97319.41;;;15.83;75.13
76052;BME280;64751;48.708;9.710;2023-05-10T14:47:25;97330.38;;;15.90;74.43
76052;BME280;64751;48.708;9.710;2023-05-10T14:49:54;97322.06;;;15.92;73.45
76052;BME280;64751;48.708;9.710;2023-05-10T14:52:21;97320.50;;;15.91;71.82
76052;BME280;64751;48.708;9.710;2023-05-10T14:54:49;97317.22;;;15.85;71.72
76052;BME280;64751;48.708;9.710;2023-05-10T14:57:17;97321.63;;;15.81;70.25
76052;BME280;64751;48.708;9.710;2023-05-10T14:59:44;97321.47;;;15.78;72.08
76052;BME280;64751;48.708;9.710;2023-05-10T15:02:12;97316.28;;;15.81;72.71
76052;BME280;64751;48.708;9.710;2023-05-10T15:04:40;97310.97;;;15.81;74.04
76052;BME280;64751;48.708;9.710;2023-05-10T15:07:09;97317.22;;;15.85;72.63
76052;BME280;64751;48.708;9.710;2023-05-10T15:09:40;97317.22;;;15.85;71.15
76052;BME280;64751;48.708;9.710;2023-05-10T15:12:08;97318.47;;;15.88;72.48
76052;BME280;64751;48.708;9.710;2023-05-10T15:14:36;97319.25;;;15.88;73.85
76052;BME280;64751;48.708;9.710;2023-05-10T15:17:06;97318.78;;;15.86;72.88
76052;BME280;64751;48.708;9.710;2023-05-10T15:19:34;97316.28;;;15.81;72.99
76052;BME280;64751;48.708;9.710;2023-05-10T15:22:02;97320.19;;;15.84;72.71
76052;BME280;64751;48.708;9.710;2023-05-10T15:24:31;97325.34;;;15.80;72.15
76052;BME280;64751;48.708;9.710;2023-05-10T15:26:59;97324.28;;;15.81;71.38
76052;BME280;64751;48.708;9.710;2023-05-10T15:29:26;97314.25;;;15.78;71.69
76052;BME280;64751;48.708;9.710;2023-05-10T15:31:54;97317.69;;;15.79;72.83
76052;BME280;64751;48.708;9.710;2023-05-10T15:34:22;97319.44;;;15.75;71.02
76052;BME280;64751;48.708;9.710;2023-05-10T15:36:49;97327.09;;;15.76;71.57
76052;BME280;64751;48.708;9.710;2023-05-10T15:39:17;97334.00;;;15.77;73.09
76052;BME280;64751;48.708;9.710;2023-05-10T15:41:46;97338.84;;;15.75;73.01
76052;BME280;64751;48.708;9.710;2023-05-10T15:44:15;97339.47;;;15.72;74.30
76052;BME280;64751;48.708;9.710;2023-05-10T15:46:42;97323.19;;;15.65;74.67
76052;BME280;64751;48.708;9.710;2023-05-10T15:49:10;97336.19;;;15.67;73.57
76052;BME280;64751;48.708;9.710;2023-05-10T15:51:38;97338.22;;;15.61;75.07
76052;BME280;64751;48.708;9.710;2023-05-10T15:54:05;97332.09;;;15.52;74.77
76052;BME280;64751;48.708;9.710;2023-05-10T15:56:33;97334.16;;;15.55;75.30
76052;BME280;64751;48.708;9.710;2023-05-10T15:59:02;97331.78;;;15.54;75.04
76052;BME280;64751;48.708;9.710;2023-05-10T16:01:31;97336.03;;;15.55;75.64
76052;BME280;64751;48.708;9.710;2023-05-10T16:03:59;97332.91;;;15.53;75.13
76052;BME280;64751;48.708;9.710;2023-05-10T16:06:27;97337.56;;;15.56;75.18
76052;BME280;64751;48.708;9.710;2023-05-10T16:08:54;97330.06;;;15.49;75.92
76052;BME280;64751;48.708;9.710;2023-05-10T16:11:22;97333.97;;;15.52;76.37
76052;BME280;64751;48.708;9.710;2023-05-10T16:13:49;97336.97;;;15.50;76.59
76052;BME280;64751;48.708;9.710;2023-05-10T16:16:19;97345.56;;;15.47;76.45
76052;BME280;64751;48.708;9.710;2023-05-10T16:18:47;97343.56;;;15.44;76.84
76052;BME280;64751;48.708;9.710;2023-05-10T16:21:15;97348.88;;;15.44;78.17
76052;BME280;64751;48.708;9.710;2023-05-10T16:23:44;97332.69;;;15.41;78.70
76052;BME280;64751;48.708;9.710;2023-05-10T16:26:11;97331.75;;;15.37;78.14
76052;BME280;64751;48.708;9.710;2023-05-10T16:28:39;97335.34;;;15.32;77.59
76052;BME280;64751;48.708;9.710;2023-05-10T16:31:07;97343.97;;;15.38;78.31
76052;BME280;64751;48.708;9.710;2023-05-10T16:33:36;97351.19;;;15.37;78.79
76052;BME280;64751;48.708;9.710;2023-05-10T16:36:04;97363.69;;;15.37;79.02
76052;BME280;64751;48.708;9.710;2023-05-10T16:38:31;97353.38;;;15.35;79.14
76052;BME280;64751;48.708;9.710;2023-05-10T16:41:00;97349.91;;;15.35;79.34
76052;BME280;64751;48.708;9.710;2023-05-10T16:43:28;97348.03;;;15.35;79.20
76052;BME280;64751;48.708;9.710;2023-05-10T16:45:57;97349.75;;;15.31;79.66
76052;BME280;64751;48.708;9.710;2023-05-10T16:48:24;97356.63;;;15.32;79.83
76052;BME280;64751;48.708;9.710;2023-05-10T16:50:54;97349.13;;;15.25;80.28
76052;BME280;64751;48.708;9.710;2023-05-10T16:53:21;97341.94;;;15.26;79.80
76052;BME280;64751;48.708;9.710;2023-05-10T16:55:49;97347.41;;;15.30;79.95
76052;BME280;64751;48.708;9.710;2023-05-10T16:58:17;97356.50;;;15.29;79.91
76052;BME280;64751;48.708;9.710;2023-05-10T17:00:44;97355.69;;;15.28;80.90
76052;BME280;64751;48.708;9.710;2023-05-10T17:03:12;97363.22;;;15.26;80.30
76052;BME280;64751;48.708;9.710;2023-05-10T17:05:40;97353.19;;;15.23;81.06
76052;BME280;64751;48.708;9.710;2023-05-10T17:08:09;97361.47;;;15.21;80.98
76052;BME280;64751;48.708;9.710;2023-05-10T17:10:38;97359.44;;;15.18;81.13
76052;BME280;64751;48.708;9.710;2023-05-10T17:13:06;97366.94;;;15.16;81.96
76052;BME280;64751;48.708;9.710;2023-05-10T17:15:35;97360.34;;;15.14;81.83
76052;BME280;64751;48.708;9.710;2023-05-10T17:18:02;97371.31;;;15.12;81.22
76052;BME280;64751;48.708;9.710;2023-05-10T17:20:30;97363.16;;;15.09;81.66
76052;BME280;64751;48.708;9.710;2023-05-10T17:22:58;97366.13;;;15.07;81.89
76052;BME280;64751;48.708;9.710;2023-05-10T17:25:29;97362.06;;;15.01;82.10
76052;BME280;64751;48.708;9.710;2023-05-10T17:27:56;97362.06;;;15.01;82.24
76052;BME280;64751;48.708;9.710;2023-05-10T17:30:24;97365.00;;;15.00;82.97
76052;BME280;64751;48.708;9.710;2023-05-10T17:32:54;97365.63;;;14.97;82.16
76052;BME280;64751;48.708;9.710;2023-05-10T17:35:21;97362.50;;;14.95;82.79
76052;BME280;64751;48.708;9.710;2023-05-10T17:37:49;97362.03;;;14.93;83.16
76052;BME280;64751;48.708;9.710;2023-05-10T17:40:17;97357.78;;;14.92;83.59
76052;BME280;64751;48.708;9.710;2023-05-10T17:42:46;97354.47;;;14.86;83.54
76052;BME280;64751;48.708;9.710;2023-05-10T17:45:14;97359.50;;;14.88;82.74
76052;BME280;64751;48.708;9.710;2023-05-10T17:47:42;97355.13;;;14.83;82.74
76052;BME280;64751;48.708;9.710;2023-05-10T17:50:10;97362.28;;;14.83;83.15
76052;BME280;64751;48.708;9.710;2023-05-10T17:52:37;97372.47;;;14.81;83.51
76052;BME280;64751;48.708;9.710;2023-05-10T17:55:06;97364.00;;;14.79;83.61
76052;BME280;64751;48.708;9.710;2023-05-10T17:57:34;97362.75;;;14.76;83.12
76052;BME280;64751;48.708;9.710;2023-05-10T18:00:06;97368.38;;;14.75;83.19
76052;BME280;64751;48.708;9.710;2023-05-10T18:02:34;97375.69;;;14.69;83.71
76052;BME280;64751;48.708;9.710;2023-05-10T18:05:03;97370.22;;;14.66;83.81
76052;BME280;64751;48.708;9.710;2023-05-10T18:07:30;97371.59;;;14.63;83.47
76052;BME280;64751;48.708;9.710;2023-05-10T18:09:58;97370.81;;;14.63;84.02
76052;BME280;64751;48.708;9.710;2023-05-10T18:12:26;97370.66;;;14.59;83.87
76052;BME280;64751;48.708;9.710;2023-05-10T18:14:54;97371.56;;;14.55;84.33
76052;BME280;64751;48.708;9.710;2023-05-10T18:17:23;97370.31;;;14.52;83.46
76052;BME280;64751;48.708;9.710;2023-05-10T18:19:53;97367.28;;;14.45;83.38
76052;BME280;64751;48.708;9.710;2023-05-10T18:22:21;97371.34;;;14.42;83.70
76052;BME280;64751;48.708;9.710;2023-05-10T18:24:49;97373.63;;;14.35;83.57
76052;BME280;64751;48.708;9.710;2023-05-10T18:27:16;97379.28;;;14.34;83.89
76052;BME280;64751;48.708;9.710;2023-05-10T18:29:44;97364.16;;;14.21;83.93
76052;BME280;64751;48.708;9.710;2023-05-10T18:32:12;97374.94;;;14.24;84.02
76052;BME280;64751;48.708;9.710;2023-05-10T18:34:41;97371.94;;;14.17;83.71
76052;BME280;64751;48.708;9.710;2023-05-10T18:37:09;97384.31;;;14.22;84.30
76052;BME280;64751;48.708;9.710;2023-05-10T18:39:37;97382.56;;;14.17;84.25
76052;BME280;64751;48.708;9.710;2023-05-10T18:42:05;97383.47;;;14.13;83.89
76052;BME280;64751;48.708;9.710;2023-05-10T18:44:33;97388.50;;;14.14;84.32
76052;BME280;64751;48.708;9.710;2023-05-10T18:47:00;97381.25;;;14.06;84.04
76052;BME280;64751;48.708;9.710;2023-05-10T18:49:28;97394.34;;;14.25;94.65
76052;BME280;64751;48.708;9.710;2023-05-10T18:51:57;97397.34;;;15.41;100.00
76052;BME280;64751;48.708;9.710;2023-05-10T18:54:24;97393.69;;;15.93;100.00
76052;BME280;64751;48.708;9.710;2023-05-10T18:56:52;97400.72;;;16.07;100.00
76052;BME280;64751;48.708;9.710;2023-05-10T18:59:20;97399.63;;;16.16;100.00
76052;BME280;64751;48.708;9.710;2023-05-10T19:01:48;97406.66;;;16.38;100.00
76052;BME280;64751;48.708;9.710;2023-05-10T19:04:15;97401.63;;;16.45;100.00
76052;BME280;64751;48.708;9.710;2023-05-10T19:06:43;97405.22;;;16.49;100.00
76052;BME280;64751;48.708;9.710;2023-05-10T19:09:12;97400.66;;;16.49;100.00
76052;BME280;64751;48.708;9.710;2023-05-10T19:11:40;97393.97;;;16.26;100.00
76052;BME280;64751;48.708;9.710;2023-05-10T19:14:08;97403.50;;;16.44;100.00
76052;BME280;64751;48.708;9.710;2023-05-10T19:16:37;97413.53;;;16.47;100.00
76052;BME280;64751;48.708;9.710;2023-05-10T19:19:05;97404.59;;;16.35;100.00
76052;BME280;64751;48.708;9.710;2023-05-10T19:21:32;97412.00;;;16.29;100.00
76052;BME280;64751;48.708;9.710;2023-05-10T19:24:00;97413.84;;;16.37;100.00
76052;BME280;64751;48.708;9.710;2023-05-10T19:26:29;97414.03;;;16.24;100.00
76052;BME280;64751;48.708;9.710;2023-05-10T19:28:57;97419.22;;;16.20;100.00
76052;BME280;64751;48.708;9.710;2023-05-10T19:31:25;97414.50;;;16.09;100.00
76052;BME280;64751;48.708;9.710;2023-05-10T19:33:52;97414.34;;;15.79;100.00
76052;BME280;64751;48.708;9.710;2023-05-10T19:36:20;97415.28;;;15.83;100.00
76052;BME280;64751;48.708;9.710;2023-05-10T19:38:48;97420.63;;;15.83;100.00
76052;BME280;64751;48.708;9.710;2023-05-10T19:41:15;97417.81;;;15.80;100.00
76052;BME280;64751;48.708;9.710;2023-05-10T19:43:45;97420.28;;;15.85;100.00
76052;BME280;64751;48.708;9.710;2023-05-10T19:46:13;97418.28;;;15.82;100.00
76052;BME280;64751;48.708;9.710;2023-05-10T19:48:41;97419.34;;;15.72;100.00
76052;BME280;64751;48.708;9.710;2023-05-10T19:51:09;97423.59;;;15.82;100.00
76052;BME280;64751;48.708;9.710;2023-05-10T19:53:37;97432.19;;;15.62;100.00
76052;BME280;64751;48.708;9.710;2023-05-10T19:56:09;97428.72;;;15.13;100.00
76052;BME280;64751;48.708;9.710;2023-05-10T19:58:38;97429.84;;;14.82;100.00
76052;BME280;64751;48.708;9.710;2023-05-10T20:01:07;97418.94;;;14.52;100.00
76052;BME280;64751;48.708;9.710;2023-05-10T20:03:34;97415.66;;;14.33;100.00
76052;BME280;64751;48.708;9.710;2023-05-10T20:06:03;97426.16;;;14.16;100.00
76052;BME280;64751;48.708;9.710;2023-05-10T20:08:30;97424.50;;;14.07;100.00
76052;BME280;64751;48.708;9.710;2023-05-10T20:10:58;97420.31;;;13.92;100.00
76052;BME280;64751;48.708;9.710;2023-05-10T20:13:28;97421.91;;;13.93;100.00
76052;BME280;64751;48.708;9.710;2023-05-10T20:15:56;97427.03;;;13.90;100.00
76052;BME280;64751;48.708;9.710;2023-05-10T20:18:26;97420.56;;;13.82;100.00
76052;BME280;64751;48.708;9.710;2023-05-10T20:20:54;97424.00;;;13.82;100.00
76052;BME280;64751;48.708;9.710;2023-05-10T20:23:21;97419.28;;;13.79;100.00
76052;BME280;64751;48.708;9.710;2023-05-10T20:25:49;97432.41;;;13.62;98.69
76052;BME280;64751;48.708;9.710;2023-05-10T20:28:21;97431.66;;;13.48;97.79
76052;BME280;64751;48.708;9.710;2023-05-10T20:30:49;97428.69;;;13.36;96.92
76052;BME280;64751;48.708;9.710;2023-05-10T20:33:17;97422.34;;;13.24;96.90
76052;BME280;64751;48.708;9.710;2023-05-10T20:35:46;97429.91;;;13.17;94.87
76052;BME280;64751;48.708;9.710;2023-05-10T20:38:15;97406.78;;;12.90;94.66
76052;BME280;64751;48.708;9.710;2023-05-10T20:40:43;97428.41;;;12.97;94.08
76052;BME280;64751;48.708;9.710;2023-05-10T20:43:11;97433.69;;;12.97;95.86
76052;BME280;64751;48.708;9.710;2023-05-10T20:45:40;97428.97;;;12.94;94.05
76052;BME280;64751;48.708;9.710;2023-05-10T20:48:08;97421.41;;;12.87;92.29
76052;BME280;64751;48.708;9.710;2023-05-10T20:50:35;97418.34;;;12.80;91.83
76052;BME280;64751;48.708;9.710;2023-05-10T20:53:05;97425.53;;;12.80;92.66
76052;BME280;64751;48.708;9.710;2023-05-10T20:55:32;97421.41;;;12.74;91.40
76052;BME280;64751;48.708;9.710;2023-05-10T20:58:00;97427.50;;;12.74;92.05
76052;BME280;64751;48.708;9.710;2023-05-10T21:00:28;97425.91;;;12.73;92.11
76052;BME280;64751;48.708;9.710;2023-05-10T21:02:56;97402.94;;;12.55;91.19
76052;BME280;64751;48.708;9.710;2023-05-10T21:05:23;97413.16;;;12.62;92.66
76052;BME280;64751;48.708;9.710;2023-05-10T21:07:51;97399.56;;;12.50;89.75
76052;BME280;64751;48.708;9.710;2023-05-10T21:10:21;97412.34;;;12.61;91.14
76052;BME280;64751;48.708;9.710;2023-05-10T21:12:50;97407.38;;;12.60;90.75
76052;BME280;64751;48.708;9.710;2023-05-10T21:15:18;97405.69;;;12.64;89.41
76052;BME280;64751;48.708;9.710;2023-05-10T21:17:47;97412.34;;;12.61;87.56
76052;BME280;64751;48.708;9.710;2023-05-10T21:20:15;97412.34;;;12.61;88.74
76052;BME280;64751;48.708;9.710;2023-05-10T21:22:43;97406.06;;;12.57;88.02
76052;BME280;64751;48.708;9.710;2023-05-10T21:25:10;97404.97;;;12.58;88.56
76052;BME280;64751;48.708;9.710;2023-05-10T21:27:40;97403.63;;;12.61;88.21
76052;BME280;64751;48.708;9.710;2023-05-10T21:30:08;97404.41;;;12.61;88.32
76052;BME280;64751;48.708;9.710;2023-05-10T21:32:36;97409.72;;;12.61;86.62
76052;BME280;64751;48.708;9.710;2023-05-10T21:35:04;97403.63;;;12.61;87.42
76052;BME280;64751;48.708;9.710;2023-05-10T21:37:32;97403.69;;;12.56;86.86
76052;BME280;64751;48.708;9.710;2023-05-10T21:40:01;97409.78;;;12.56;87.77
76052;BME280;64751;48.708;9.710;2023-05-10T21:42:30;97413.81;;;12.54;88.11
76052;BME280;64751;48.708;9.710;2023-05-10T21:44:59;97417.06;;;12.51;87.45
76052;BME280;64751;48.708;9.710;2023-05-10T21:47:27;97404.56;;;12.51;87.33
76052;BME280;64751;48.708;9.710;2023-05-10T21:49:54;97410.38;;;12.53;87.15
76052;BME280;64751;48.708;9.710;2023-05-10T21:52:22;97415.88;;;12.57;86.40
76052;BME280;64751;48.708;9.710;2023-05-10T21:54:50;97412.13;;;12.58;86.55
76052;BME280;64751;48.708;9.710;2023-05-10T21:57:17;97410.88;;;12.55;86.49
76052;BME280;64751;48.708;9.710;2023-05-10T21:59:46;97414.53;;;12.59;86.58
